sensor_id;sensor_type;location;lat;lon;timestamp;pressure;altitude;pressure_sealevel;temperature;humidity
32298;BME280;18782;48.984;8.548;2024-02-23T00:02:08;97937.50;;;7.67;88.11
32298;BME280;18782;48.984;8.548;2024-02-23T00:04:37;97919.59;;;7.67;87.47
32298;BME280;18782;48.984;8.548;2024-02-23T00:07:04;97916.16;;;7.62;87.22
32298;BME280;18782;48.984;8.548;2024-02-23T00:09:32;97915.31;;;7.63;87.20
32298;BME280;18782;48.984;8.548;2024-02-23T00:12:00;97905.09;;;7.63;87.13
32298;BME280;18782;48.984;8.548;2024-02-23T00:14:29;97930.66;;;7.59;86.91
32298;BME280;18782;48.984;8.548;2024-02-23T00:16:57;97931.53;;;7.60;87.02
32298;BME280;18782;48.984;8.548;2024-02-23T00:19:25;97921.25;;;7.54;87.69
32298;BME280;18782;48.984;8.548;2024-02-23T00:21:54;97930.63;;;7.56;86.89
32298;BME280;18782;48.984;8.548;2024-02-23T00:24:22;97963.94;;;7.53;87.17
32298;BME280;18782;48.984;8.548;2024-02-23T00:26:49;97947.72;;;7.54;86.57
32298;BME280;18782;48.984;8.548;2024-02-23T00:29:18;97957.13;;;7.60;86.70
32298;BME280;18782;48.984;8.548;2024-02-23T00:31:46;97951.97;;;7.54;86.82
32298;BME280;18782;48.984;8.548;2024-02-23T00:34:13;97964.81;;;7.60;86.64
32298;BME280;18782;48.984;8.548;2024-02-23T00:36:42;97964.78;;;7.52;87.50
32298;BME280;18782;48.984;8.548;2024-02-23T00:39:12;97963.03;;;7.51;87.27
32298;BME280;18782;48.984;8.548;2024-02-23T00:41:40;97965.59;;;7.51;87.93
32298;BME280;18782;48.984;8.548;2024-02-23T00:44:07;97979.22;;;7.44;87.86
32298;BME280;18782;48.984;8.548;2024-02-23T00:46:35;97966.47;;;7.49;86.93
32298;BME280;18782;48.984;8.548;2024-02-23T00:49:03;97966.44;;;7.44;87.08
32298;BME280;18782;48.984;8.548;2024-02-23T00:51:31;97968.16;;;7.42;87.71
32298;BME280;18782;48.984;8.548;2024-02-23T00:53:59;97982.63;;;7.39;87.67
32298;BME280;18782;48.984;8.548;2024-02-23T00:56:28;97978.34;;;7.39;87.78
32298;BME280;18782;48.984;8.548;2024-02-23T00:59:10;97985.19;;;7.37;87.30
32298;BME280;18782;48.984;8.548;2024-02-23T01:01:38;97999.66;;;7.35;87.71
32298;BME280;18782;48.984;8.548;2024-02-23T01:04:06;98007.28;;;7.29;87.77
32298;BME280;18782;48.984;8.548;2024-02-23T01:06:34;97997.91;;;7.26;87.25
32298;BME280;18782;48.984;8.548;2024-02-23T01:09:02;97999.63;;;7.27;86.90
32298;BME280;18782;48.984;8.548;2024-02-23T01:11:32;98001.28;;;7.25;87.19
32298;BME280;18782;48.984;8.548;2024-02-23T01:14:00;98003.84;;;7.21;87.50
32298;BME280;18782;48.984;8.548;2024-02-23T01:16:27;98002.16;;;7.23;87.19
32298;BME280;18782;48.984;8.548;2024-02-23T01:18:55;98012.34;;;7.20;87.33
32298;BME280;18782;48.984;8.548;2024-02-23T01:21:23;97982.50;;;7.16;87.91
32298;BME280;18782;48.984;8.548;2024-02-23T01:23:51;97998.66;;;7.15;88.31
32298;BME280;18782;48.984;8.548;2024-02-23T01:26:18;98019.09;;;7.09;88.92
32298;BME280;18782;48.984;8.548;2024-02-23T01:28:47;98020.81;;;7.10;88.86
32298;BME280;18782;48.984;8.548;2024-02-23T01:31:15;98016.56;;;7.15;88.19
32298;BME280;18782;48.984;8.548;2024-02-23T01:33:43;98039.59;;;7.12;88.75
32298;BME280;18782;48.984;8.548;2024-02-23T01:36:10;98013.97;;;7.09;88.51
32298;BME280;18782;48.984;8.548;2024-02-23T01:38:38;98019.91;;;7.03;89.30
32298;BME280;18782;48.984;8.548;2024-02-23T01:41:06;98030.16;;;7.04;88.99
32298;BME280;18782;48.984;8.548;2024-02-23T01:43:34;98023.31;;;7.02;89.24
32298;BME280;18782;48.984;8.548;2024-02-23T01:46:03;98044.59;;;6.99;88.16
32298;BME280;18782;48.984;8.548;2024-02-23T01:48:32;98055.72;;;7.00;88.03
32298;BME280;18782;48.984;8.548;2024-02-23T01:51:00;98046.28;;;6.97;88.30
32298;BME280;18782;48.984;8.548;2024-02-23T01:53:29;98051.41;;;6.97;87.02
32298;BME280;18782;48.984;8.548;2024-02-23T01:55:58;98029.25;;;6.96;86.13
32298;BME280;18782;48.984;8.548;2024-02-23T01:58:28;98063.34;;;6.95;86.24
32298;BME280;18782;48.984;8.548;2024-02-23T02:00:57;98051.41;;;6.94;86.79
32298;BME280;18782;48.984;8.548;2024-02-23T02:03:26;98048.81;;;6.93;86.20
32298;BME280;18782;48.984;8.548;2024-02-23T02:05:55;98041.22;;;7.03;84.73
32298;BME280;18782;48.984;8.548;2024-02-23T02:08:25;98026.69;;;6.95;85.66
32298;BME280;18782;48.984;8.548;2024-02-23T02:10:53;98020.75;;;7.03;85.00
32298;BME280;18782;48.984;8.548;2024-02-23T02:13:21;98041.19;;;6.97;84.46
32298;BME280;18782;48.984;8.548;2024-02-23T02:15:49;98026.66;;;6.93;84.67
32298;BME280;18782;48.984;8.548;2024-02-23T02:18:16;98047.16;;;6.98;84.88
32298;BME280;18782;48.984;8.548;2024-02-23T02:20:51;98053.13;;;6.98;84.71
32298;BME280;18782;48.984;8.548;2024-02-23T02:23:19;98053.16;;;7.01;84.63
32298;BME280;18782;48.984;8.548;2024-02-23T02:25:52;98049.78;;;7.05;85.16
32298;BME280;18782;48.984;8.548;2024-02-23T02:28:20;98053.19;;;7.06;85.61
32298;BME280;18782;48.984;8.548;2024-02-23T02:30:48;98054.91;;;7.09;86.29
32298;BME280;18782;48.984;8.548;2024-02-23T02:33:16;98062.59;;;7.07;86.39
32298;BME280;18782;48.984;8.548;2024-02-23T02:35:44;98056.63;;;7.06;86.79
32298;BME280;18782;48.984;8.548;2024-02-23T02:38:13;98063.47;;;7.11;86.64
32298;BME280;18782;48.984;8.548;2024-02-23T02:40:41;98056.63;;;7.10;85.31
32298;BME280;18782;48.984;8.548;2024-02-23T02:43:09;98053.13;;;6.98;85.29
32298;BME280;18782;48.984;8.548;2024-02-23T02:45:37;98059.97;;;7.02;85.46
32298;BME280;18782;48.984;8.548;2024-02-23T02:48:05;98046.28;;;6.97;85.95
32298;BME280;18782;48.984;8.548;2024-02-23T02:50:33;98056.63;;;7.06;85.99
32298;BME280;18782;48.984;8.548;2024-02-23T02:53:01;98060.84;;;7.01;84.58
32298;BME280;18782;48.984;8.548;2024-02-23T02:55:31;98043.78;;;7.00;84.09
32298;BME280;18782;48.984;8.548;2024-02-23T02:57:58;98063.41;;;7.04;84.27
32298;BME280;18782;48.984;8.548;2024-02-23T03:00:26;98053.16;;;7.01;84.44
32298;BME280;18782;48.984;8.548;2024-02-23T03:02:54;98058.28;;;7.01;84.83
32298;BME280;18782;48.984;8.548;2024-02-23T03:05:21;98062.50;;;6.99;84.20
32298;BME280;18782;48.984;8.548;2024-02-23T03:07:49;98045.41;;;6.94;84.88
32298;BME280;18782;48.984;8.548;2024-02-23T03:10:17;98066.75;;;6.97;83.76
32298;BME280;18782;48.984;8.548;2024-02-23T03:12:46;98065.06;;;6.99;83.84
32298;BME280;18782;48.984;8.548;2024-02-23T03:15:14;98072.78;;;7.04;83.66
32298;BME280;18782;48.984;8.548;2024-02-23T03:17:41;98071.03;;;6.98;82.89
32298;BME280;18782;48.984;8.548;2024-02-23T03:20:11;98048.81;;;6.93;83.38
32298;BME280;18782;48.984;8.548;2024-02-23T03:22:39;98049.66;;;6.90;83.21
32298;BME280;18782;48.984;8.548;2024-02-23T03:25:07;98052.19;;;6.86;81.77
32298;BME280;18782;48.984;8.548;2024-02-23T03:27:36;98052.97;;;6.83;81.67
32298;BME280;18782;48.984;8.548;2024-02-23T03:30:06;98048.72;;;6.79;82.00
32298;BME280;18782;48.984;8.548;2024-02-23T03:32:35;98037.59;;;6.77;81.83
32298;BME280;18782;48.984;8.548;2024-02-23T03:35:06;98045.16;;;6.66;82.68
32298;BME280;18782;48.984;8.548;2024-02-23T03:37:34;98054.53;;;6.66;81.64
32298;BME280;18782;48.984;8.548;2024-02-23T03:40:02;98053.59;;;6.58;82.15
32298;BME280;18782;48.984;8.548;2024-02-23T03:42:31;98049.31;;;6.53;82.08
32298;BME280;18782;48.984;8.548;2024-02-23T03:44:59;98045.97;;;6.61;82.27
32298;BME280;18782;48.984;8.548;2024-02-23T03:47:28;98057.84;;;6.54;82.05
32298;BME280;18782;48.984;8.548;2024-02-23T03:49:56;98051.03;;;6.54;81.88
32298;BME280;18782;48.984;8.548;2024-02-23T03:52:23;98057.00;;;6.57;82.59
32298;BME280;18782;48.984;8.548;2024-02-23T03:54:51;98071.56;;;6.64;81.50
32298;BME280;18782;48.984;8.548;2024-02-23T03:57:20;98084.41;;;6.68;79.06
32298;BME280;18782;48.984;8.548;2024-02-23T03:59:51;98066.47;;;6.65;79.59
32298;BME280;18782;48.984;8.548;2024-02-23T04:02:19;98075.91;;;6.69;80.38
32298;BME280;18782;48.984;8.548;2024-02-23T04:04:49;98087.81;;;6.70;79.68
32298;BME280;18782;48.984;8.548;2024-02-23T04:07:17;98098.06;;;6.69;77.98
32298;BME280;18782;48.984;8.548;2024-02-23T04:09:44;98089.53;;;6.70;77.62
32298;BME280;18782;48.984;8.548;2024-02-23T04:12:18;98086.97;;;6.73;77.82
32298;BME280;18782;48.984;8.548;2024-02-23T04:14:46;98081.88;;;6.71;76.11
32298;BME280;18782;48.984;8.548;2024-02-23T04:17:13;98082.72;;;6.70;75.32
32298;BME280;18782;48.984;8.548;2024-02-23T04:19:41;98085.28;;;6.72;75.42
32298;BME280;18782;48.984;8.548;2024-02-23T04:22:10;98072.59;;;6.79;75.47
32298;BME280;18782;48.984;8.548;2024-02-23T04:24:39;98085.38;;;6.81;74.03
32298;BME280;18782;48.984;8.548;2024-02-23T04:27:07;98086.22;;;6.82;73.73
32298;BME280;18782;48.984;8.548;2024-02-23T04:29:35;98085.38;;;6.81;73.62
32298;BME280;18782;48.984;8.548;2024-02-23T04:32:04;98087.94;;;6.81;72.61
32298;BME280;18782;48.984;8.548;2024-02-23T04:34:31;98093.03;;;6.79;73.38
32298;BME280;18782;48.984;8.548;2024-02-23T04:36:59;98083.63;;;6.77;73.75
32298;BME280;18782;48.984;8.548;2024-02-23T04:39:28;98086.97;;;6.70;73.36
32298;BME280;18782;48.984;8.548;2024-02-23T04:41:56;98081.81;;;6.67;72.89
32298;BME280;18782;48.984;8.548;2024-02-23T04:44:24;98076.69;;;6.67;74.57
32298;BME280;18782;48.984;8.548;2024-02-23T04:46:51;98074.19;;;6.68;73.07
32298;BME280;18782;48.984;8.548;2024-02-23T04:49:19;98073.25;;;6.62;74.28
32298;BME280;18782;48.984;8.548;2024-02-23T04:51:47;98082.66;;;6.67;75.51
32298;BME280;18782;48.984;8.548;2024-02-23T04:54:14;98076.69;;;6.67;75.07
32298;BME280;18782;48.984;8.548;2024-02-23T04:56:44;98066.47;;;6.67;74.27
32298;BME280;18782;48.984;8.548;2024-02-23T04:59:11;98072.44;;;6.66;74.33
32298;BME280;18782;48.984;8.548;2024-02-23T05:01:39;98082.63;;;6.63;75.91
32298;BME280;18782;48.984;8.548;2024-02-23T05:04:07;98088.59;;;6.62;74.02
32298;BME280;18782;48.984;8.548;2024-02-23T05:06:35;98095.44;;;6.66;74.87
32298;BME280;18782;48.984;8.548;2024-02-23T05:09:03;98085.19;;;6.63;74.63
32298;BME280;18782;48.984;8.548;2024-02-23T05:11:32;98092.91;;;6.67;74.04
32298;BME280;18782;48.984;8.548;2024-02-23T05:14:01;98086.97;;;6.70;74.62
32298;BME280;18782;48.984;8.548;2024-02-23T05:16:28;98086.94;;;6.67;73.86
32298;BME280;18782;48.984;8.548;2024-02-23T05:18:56;98084.38;;;6.67;74.55
32298;BME280;18782;48.984;8.548;2024-02-23T05:21:24;98096.31;;;6.68;73.23
32298;BME280;18782;48.984;8.548;2024-02-23T05:23:52;98095.44;;;6.66;74.78
32298;BME280;18782;48.984;8.548;2024-02-23T05:26:20;98103.97;;;6.65;74.03
32298;BME280;18782;48.984;8.548;2024-02-23T05:28:48;98095.38;;;6.60;73.49
32298;BME280;18782;48.984;8.548;2024-02-23T05:31:17;98091.97;;;6.61;73.26
32298;BME280;18782;48.984;8.548;2024-02-23T05:33:46;98097.06;;;6.58;73.73
32298;BME280;18782;48.984;8.548;2024-02-23T05:36:15;98090.22;;;6.57;73.95
32298;BME280;18782;48.984;8.548;2024-02-23T05:38:44;98093.63;;;6.54;74.32
32298;BME280;18782;48.984;8.548;2024-02-23T05:41:12;98100.50;;;6.63;73.13
32298;BME280;18782;48.984;8.548;2024-02-23T05:43:40;98116.63;;;6.56;72.88
32298;BME280;18782;48.984;8.548;2024-02-23T05:46:08;98104.59;;;6.47;72.99
32298;BME280;18782;48.984;8.548;2024-02-23T05:48:37;98100.28;;;6.38;74.09
32298;BME280;18782;48.984;8.548;2024-02-23T05:51:04;98101.13;;;6.40;72.46
32298;BME280;18782;48.984;8.548;2024-02-23T05:53:32;98098.56;;;6.37;72.68
32298;BME280;18782;48.984;8.548;2024-02-23T05:56:00;98106.97;;;6.30;71.86
32298;BME280;18782;48.984;8.548;2024-02-23T05:58:28;98101.84;;;6.27;72.53
32298;BME280;18782;48.984;8.548;2024-02-23T06:00:56;98100.94;;;6.23;72.36
32298;BME280;18782;48.984;8.548;2024-02-23T06:03:23;98097.47;;;6.18;72.54
32298;BME280;18782;48.984;8.548;2024-02-23T06:05:52;98108.47;;;6.13;72.45
32298;BME280;18782;48.984;8.548;2024-02-23T06:08:20;98101.53;;;6.03;73.19
32298;BME280;18782;48.984;8.548;2024-02-23T06:10:49;98104.88;;;5.98;74.28
32298;BME280;18782;48.984;8.548;2024-02-23T06:13:18;98124.47;;;5.98;72.69
32298;BME280;18782;48.984;8.548;2024-02-23T06:15:45;98110.03;;;6.01;72.87
32298;BME280;18782;48.984;8.548;2024-02-23T06:18:13;98109.25;;;6.06;74.56
32298;BME280;18782;48.984;8.548;2024-02-23T06:20:41;98095.78;;;6.19;73.98
32298;BME280;18782;48.984;8.548;2024-02-23T06:23:10;98103.44;;;6.19;74.03
32298;BME280;18782;48.984;8.548;2024-02-23T06:25:38;98106.72;;;6.09;74.13
32298;BME280;18782;48.984;8.548;2024-02-23T06:28:06;98105.72;;;5.99;74.53
32298;BME280;18782;48.984;8.548;2024-02-23T06:30:33;98103.22;;;6.00;75.51
32298;BME280;18782;48.984;8.548;2024-02-23T06:33:01;98104.88;;;5.98;75.78
32298;BME280;18782;48.984;8.548;2024-02-23T06:35:31;98110.03;;;6.01;75.03
32298;BME280;18782;48.984;8.548;2024-02-23T06:37:59;98103.22;;;6.00;75.26
32298;BME280;18782;48.984;8.548;2024-02-23T06:40:28;98097.16;;;5.94;74.21
32298;BME280;18782;48.984;8.548;2024-02-23T06:43:11;98108.34;;;6.04;77.76
32298;BME280;18782;48.984;8.548;2024-02-23T06:45:39;98103.25;;;6.04;74.56
32298;BME280;18782;48.984;8.548;2024-02-23T06:48:07;98101.47;;;5.99;73.64
32298;BME280;18782;48.984;8.548;2024-02-23T06:50:35;98106.50;;;5.93;73.84
32298;BME280;18782;48.984;8.548;2024-02-23T06:53:03;98108.13;;;5.88;74.38
32298;BME280;18782;48.984;8.548;2024-02-23T06:55:34;98103.00;;;5.88;74.71
32298;BME280;18782;48.984;8.548;2024-02-23T06:58:03;98106.41;;;5.87;76.14
32298;BME280;18782;48.984;8.548;2024-02-23T07:00:31;98097.03;;;5.88;76.71
32298;BME280;18782;48.984;8.548;2024-02-23T07:02:58;98102.94;;;5.82;74.66
32298;BME280;18782;48.984;8.548;2024-02-23T07:05:30;98102.13;;;5.85;74.46
32298;BME280;18782;48.984;8.548;2024-02-23T07:07:58;98100.31;;;5.79;75.78
32298;BME280;18782;48.984;8.548;2024-02-23T07:10:26;98100.47;;;5.90;77.28
32298;BME280;18782;48.984;8.548;2024-02-23T07:12:55;98105.56;;;5.90;76.29
32298;BME280;18782;48.984;8.548;2024-02-23T07:15:24;98107.25;;;5.86;77.56
32298;BME280;18782;48.984;8.548;2024-02-23T07:17:52;98109.06;;;5.92;76.42
32298;BME280;18782;48.984;8.548;2024-02-23T07:20:20;98118.50;;;5.99;76.62
32298;BME280;18782;48.984;8.548;2024-02-23T07:22:48;98112.53;;;5.95;75.55
32298;BME280;18782;48.984;8.548;2024-02-23T07:25:16;98123.53;;;5.91;76.71
32298;BME280;18782;48.984;8.548;2024-02-23T07:27:44;98126.88;;;5.90;77.12
32298;BME280;18782;48.984;8.548;2024-02-23T07:30:14;98125.16;;;5.89;76.42
32298;BME280;18782;48.984;8.548;2024-02-23T07:32:42;98133.66;;;5.88;75.61
32298;BME280;18782;48.984;8.548;2024-02-23T07:35:12;98143.13;;;5.94;76.81
32298;BME280;18782;48.984;8.548;2024-02-23T07:37:40;98139.78;;;5.96;76.07
32298;BME280;18782;48.984;8.548;2024-02-23T07:40:08;98136.31;;;5.93;75.16
32298;BME280;18782;48.984;8.548;2024-02-23T07:42:35;98139.91;;;6.07;75.81
32298;BME280;18782;48.984;8.548;2024-02-23T07:45:04;98147.50;;;6.03;76.31
32298;BME280;18782;48.984;8.548;2024-02-23T07:47:33;98154.31;;;6.00;76.51
32298;BME280;18782;48.984;8.548;2024-02-23T07:50:01;98149.22;;;6.04;75.11
32298;BME280;18782;48.984;8.548;2024-02-23T07:52:29;98145.88;;;6.08;75.28
32298;BME280;18782;48.984;8.548;2024-02-23T07:54:57;98141.72;;;6.16;74.30
32298;BME280;18782;48.984;8.548;2024-02-23T07:57:26;98148.63;;;6.21;74.56
32298;BME280;18782;48.984;8.548;2024-02-23T07:59:54;98150.34;;;6.22;75.42
32298;BME280;18782;48.984;8.548;2024-02-23T08:02:21;98149.56;;;6.28;73.52
32298;BME280;18782;48.984;8.548;2024-02-23T08:04:51;98149.56;;;6.31;75.14
32298;BME280;18782;48.984;8.548;2024-02-23T08:07:19;98149.63;;;6.34;74.24
32298;BME280;18782;48.984;8.548;2024-02-23T08:09:47;98147.13;;;6.39;73.13
32298;BME280;18782;48.984;8.548;2024-02-23T08:12:14;98139.47;;;6.40;74.10
32298;BME280;18782;48.984;8.548;2024-02-23T08:14:42;98135.22;;;6.41;74.20
32298;BME280;18782;48.984;8.548;2024-02-23T08:17:11;98132.69;;;6.42;73.46
32298;BME280;18782;48.984;8.548;2024-02-23T08:19:39;98137.88;;;6.48;73.71
32298;BME280;18782;48.984;8.548;2024-02-23T08:22:08;98139.66;;;6.56;71.27
32298;BME280;18782;48.984;8.548;2024-02-23T08:24:36;98140.50;;;6.56;72.33
32298;BME280;18782;48.984;8.548;2024-02-23T08:27:04;98135.41;;;6.58;73.02
32298;BME280;18782;48.984;8.548;2024-02-23T08:29:32;98131.25;;;6.66;71.52
32298;BME280;18782;48.984;8.548;2024-02-23T08:31:59;98125.34;;;6.73;69.85
32298;BME280;18782;48.984;8.548;2024-02-23T08:34:27;98133.09;;;6.79;71.15
32298;BME280;18782;48.984;8.548;2024-02-23T08:36:55;98131.47;;;6.87;72.09
32298;BME280;18782;48.984;8.548;2024-02-23T08:39:24;98127.41;;;7.06;72.15
32298;BME280;18782;48.984;8.548;2024-02-23T08:41:51;98128.38;;;7.22;68.12
32298;BME280;18782;48.984;8.548;2024-02-23T08:44:19;98129.25;;;7.25;68.43
32298;BME280;18782;48.984;8.548;2024-02-23T08:46:47;98125.91;;;7.34;67.71
32298;BME280;18782;48.984;8.548;2024-02-23T08:49:15;98135.34;;;7.38;66.39
32298;BME280;18782;48.984;8.548;2024-02-23T08:51:43;98126.06;;;7.54;68.06
32298;BME280;18782;48.984;8.548;2024-02-23T08:54:10;98132.13;;;7.64;66.03
32298;BME280;18782;48.984;8.548;2024-02-23T08:56:40;98122.81;;;7.73;66.76
32298;BME280;18782;48.984;8.548;2024-02-23T08:59:09;98117.72;;;7.79;64.95
32298;BME280;18782;48.984;8.548;2024-02-23T09:01:37;98132.25;;;7.85;64.84
32298;BME280;18782;48.984;8.548;2024-02-23T09:04:04;98116.97;;;8.00;64.67
32298;BME280;18782;48.984;8.548;2024-02-23T09:06:32;98107.66;;;8.16;63.96
32298;BME280;18782;48.984;8.548;2024-02-23T09:09:05;98113.69;;;8.26;62.42
32298;BME280;18782;48.984;8.548;2024-02-23T09:11:33;98107.78;;;8.39;61.81
32298;BME280;18782;48.984;8.548;2024-02-23T09:14:02;98109.41;;;8.29;58.76
32298;BME280;18782;48.984;8.548;2024-02-23T09:16:30;98101.75;;;8.34;60.09
32298;BME280;18782;48.984;8.548;2024-02-23T09:18:58;98120.59;;;8.39;58.99
32298;BME280;18782;48.984;8.548;2024-02-23T09:21:26;98115.47;;;8.36;59.36
32298;BME280;18782;48.984;8.548;2024-02-23T09:23:53;98127.44;;;8.37;60.10
32298;BME280;18782;48.984;8.548;2024-02-23T09:26:21;98129.16;;;8.38;59.54
32298;BME280;18782;48.984;8.548;2024-02-23T09:28:48;98109.44;;;8.32;59.98
32298;BME280;18782;48.984;8.548;2024-02-23T09:31:17;98100.09;;;8.39;60.12
32298;BME280;18782;48.984;8.548;2024-02-23T09:33:46;98102.66;;;8.45;59.50
32298;BME280;18782;48.984;8.548;2024-02-23T09:36:16;98102.72;;;8.57;59.97
32298;BME280;18782;48.984;8.548;2024-02-23T09:38:43;98096.75;;;8.68;59.91
32298;BME280;18782;48.984;8.548;2024-02-23T09:41:19;98105.31;;;8.82;58.22
32298;BME280;18782;48.984;8.548;2024-02-23T09:43:48;98119.91;;;8.98;60.03
32298;BME280;18782;48.984;8.548;2024-02-23T09:46:17;98118.22;;;9.05;58.58
32298;BME280;18782;48.984;8.548;2024-02-23T09:48:45;98102.78;;;8.86;58.29
32298;BME280;18782;48.984;8.548;2024-02-23T09:51:14;98105.38;;;9.03;58.22
32298;BME280;18782;48.984;8.548;2024-02-23T09:53:43;98106.22;;;9.11;57.79
32298;BME280;18782;48.984;8.548;2024-02-23T09:56:11;98117.31;;;8.92;56.77
32298;BME280;18782;48.984;8.548;2024-02-23T09:58:39;98097.66;;;9.02;58.24
32298;BME280;18782;48.984;8.548;2024-02-23T10:01:10;98104.53;;;9.15;56.75
32298;BME280;18782;48.984;8.548;2024-02-23T10:03:40;98102.78;;;8.85;57.54
32298;BME280;18782;48.984;8.548;2024-02-23T10:06:09;98088.25;;;8.99;58.78
32298;BME280;18782;48.984;8.548;2024-02-23T10:08:36;98097.69;;;9.11;58.92
32298;BME280;18782;48.984;8.548;2024-02-23T10:11:04;98105.38;;;9.22;57.84
32298;BME280;18782;48.984;8.548;2024-02-23T10:13:32;98106.25;;;9.51;58.49
32298;BME280;18782;48.984;8.548;2024-02-23T10:16:00;98106.25;;;9.45;56.81
32298;BME280;18782;48.984;8.548;2024-02-23T10:18:42;98112.22;;;9.62;57.02
32298;BME280;18782;48.984;8.548;2024-02-23T10:21:10;98108.78;;;9.70;56.73
32298;BME280;18782;48.984;8.548;2024-02-23T10:23:38;98119.91;;;9.87;56.32
32298;BME280;18782;48.984;8.548;2024-02-23T10:26:06;98127.63;;;9.44;55.20
32298;BME280;18782;48.984;8.548;2024-02-23T10:28:34;98131.06;;;9.37;55.80
32298;BME280;18782;48.984;8.548;2024-02-23T10:31:02;98128.47;;;9.54;56.29
32298;BME280;18782;48.984;8.548;2024-02-23T10:33:30;98114.81;;;9.52;56.11
32298;BME280;18782;48.984;8.548;2024-02-23T10:36:00;98115.63;;;9.77;56.47
32298;BME280;18782;48.984;8.548;2024-02-23T10:38:28;98115.53;;;10.13;55.27
32298;BME280;18782;48.984;8.548;2024-02-23T10:40:59;98116.47;;;9.88;55.49
32298;BME280;18782;48.984;8.548;2024-02-23T10:43:30;98119.81;;;10.16;55.65
32298;BME280;18782;48.984;8.548;2024-02-23T10:46:00;98138.63;;;10.39;55.61
32298;BME280;18782;48.984;8.548;2024-02-23T10:48:35;98144.59;;;10.48;54.67
32298;BME280;18782;48.984;8.548;2024-02-23T10:51:05;98149.81;;;10.25;54.98
32298;BME280;18782;48.984;8.548;2024-02-23T10:53:34;98134.34;;;10.28;55.88
32298;BME280;18782;48.984;8.548;2024-02-23T10:56:03;98130.06;;;10.33;54.60
32298;BME280;18782;48.984;8.548;2024-02-23T10:58:32;98124.06;;;10.40;54.79
32298;BME280;18782;48.984;8.548;2024-02-23T11:01:00;98116.38;;;10.26;55.18
32298;BME280;18782;48.984;8.548;2024-02-23T11:03:30;98130.81;;;10.58;54.42
32298;BME280;18782;48.984;8.548;2024-02-23T11:05:59;98117.06;;;10.63;54.78
32298;BME280;18782;48.984;8.548;2024-02-23T11:08:29;98120.47;;;10.68;54.91
32298;BME280;18782;48.984;8.548;2024-02-23T11:11:07;98149.53;;;10.89;53.54
32298;BME280;18782;48.984;8.548;2024-02-23T11:13:36;98138.41;;;10.84;54.26
32298;BME280;18782;48.984;8.548;2024-02-23T11:16:04;98135.94;;;10.59;53.96
32298;BME280;18782;48.984;8.548;2024-02-23T11:18:34;98118.84;;;10.52;54.98
32298;BME280;18782;48.984;8.548;2024-02-23T11:21:03;98117.06;;;10.63;59.77
32298;BME280;18782;48.984;8.548;2024-02-23T11:23:40;98120.50;;;10.62;56.13
32298;BME280;18782;48.984;8.548;2024-02-23T11:26:10;98110.38;;;10.19;56.11
32298;BME280;18782;48.984;8.548;2024-02-23T11:28:47;98122.41;;;9.96;57.56
32298;BME280;18782;48.984;8.548;2024-02-23T11:31:16;98108.66;;;10.22;57.99
32298;BME280;18782;48.984;8.548;2024-02-23T11:33:50;98108.59;;;10.46;56.93
32298;BME280;18782;48.984;8.548;2024-02-23T11:36:24;98103.47;;;10.40;56.68
32298;BME280;18782;48.984;8.548;2024-02-23T11:38:57;98096.56;;;10.48;56.41
32298;BME280;18782;48.984;8.548;2024-02-23T11:41:26;98110.22;;;10.62;56.01
32298;BME280;18782;48.984;8.548;2024-02-23T11:43:55;98108.44;;;10.77;55.36
32298;BME280;18782;48.984;8.548;2024-02-23T11:46:23;98111.84;;;10.74;54.42
32298;BME280;18782;48.984;8.548;2024-02-23T11:48:51;98108.25;;;11.07;54.66
32298;BME280;18782;48.984;8.548;2024-02-23T11:51:21;98101.00;;;11.52;53.46
32298;BME280;18782;48.984;8.548;2024-02-23T11:53:50;98097.41;;;11.68;52.28
32298;BME280;18782;48.984;8.548;2024-02-23T11:56:20;98092.47;;;11.48;51.81
32298;BME280;18782;48.984;8.548;2024-02-23T11:58:48;98096.81;;;11.37;51.06
32298;BME280;18782;48.984;8.548;2024-02-23T12:01:16;98085.53;;;11.55;51.87
32298;BME280;18782;48.984;8.548;2024-02-23T12:03:43;98087.31;;;11.47;51.92
32298;BME280;18782;48.984;8.548;2024-02-23T12:06:14;98090.47;;;11.76;50.99
32298;BME280;18782;48.984;8.548;2024-02-23T12:08:42;98085.50;;;11.57;50.74
32298;BME280;18782;48.984;8.548;2024-02-23T12:11:11;98093.31;;;11.46;51.17
32298;BME280;18782;48.984;8.548;2024-02-23T12:13:41;98089.09;;;11.37;51.21
32298;BME280;18782;48.984;8.548;2024-02-23T12:16:09;98098.69;;;11.23;52.26
32298;BME280;18782;48.984;8.548;2024-02-23T12:18:37;98091.78;;;11.22;51.72
32298;BME280;18782;48.984;8.548;2024-02-23T12:21:06;98105.63;;;11.13;51.85
32298;BME280;18782;48.984;8.548;2024-02-23T12:23:41;98091.00;;;11.15;50.95
32298;BME280;18782;48.984;8.548;2024-02-23T12:26:09;98086.81;;;10.99;51.76
32298;BME280;18782;48.984;8.548;2024-02-23T12:28:37;98077.38;;;11.01;52.54
32298;BME280;18782;48.984;8.548;2024-02-23T12:31:06;98083.13;;;11.34;51.54
32298;BME280;18782;48.984;8.548;2024-02-23T12:33:35;98074.69;;;11.15;51.64
32298;BME280;18782;48.984;8.548;2024-02-23T12:36:04;98085.84;;;11.18;51.40
32298;BME280;18782;48.984;8.548;2024-02-23T12:38:32;98080.63;;;11.28;54.36
32298;BME280;18782;48.984;8.548;2024-02-23T12:41:01;98079.66;;;11.39;52.96
32298;BME280;18782;48.984;8.548;2024-02-23T12:43:29;98074.56;;;11.32;51.86
32298;BME280;18782;48.984;8.548;2024-02-23T12:45:57;98079.94;;;11.03;51.03
32298;BME280;18782;48.984;8.548;2024-02-23T12:48:26;98079.91;;;11.06;51.27
32298;BME280;18782;48.984;8.548;2024-02-23T12:50:54;98079.00;;;11.14;50.64
32298;BME280;18782;48.984;8.548;2024-02-23T12:53:32;98075.56;;;11.14;51.21
32298;BME280;18782;48.984;8.548;2024-02-23T12:56:02;98068.75;;;11.05;51.78
32298;BME280;18782;48.984;8.548;2024-02-23T12:58:30;98078.09;;;11.17;51.03
32298;BME280;18782;48.984;8.548;2024-02-23T13:00:58;98087.72;;;10.93;51.35
32298;BME280;18782;48.984;8.548;2024-02-23T13:03:27;98072.13;;;11.13;51.65
32298;BME280;18782;48.984;8.548;2024-02-23T13:05:56;98075.59;;;11.09;51.26
32298;BME280;18782;48.984;8.548;2024-02-23T13:08:24;98073.19;;;10.86;51.96
32298;BME280;18782;48.984;8.548;2024-02-23T13:10:54;98070.50;;;11.00;51.75
32298;BME280;18782;48.984;8.548;2024-02-23T13:13:22;98068.81;;;10.99;51.54
32298;BME280;18782;48.984;8.548;2024-02-23T13:15:50;98073.97;;;10.96;52.41
32298;BME280;18782;48.984;8.548;2024-02-23T13:18:18;98073.84;;;11.11;52.30